BIKFBGBW

Guest
Details From BIKF - Keflavik Nas
To BGBW - Narsarsuaq
Flight Number -
Tags Generated
Created
Modified
Stats Distance 650 nm / 1,204 km
Max Altitude 0 ft / 0 m
Waypoints 3
Social Downloads 1
Likes 0
Share VATSIM

Download

Looking for another format? Having issues loading an existing format? Contact us
Advertisement - Login to hide

Notes

Generated

Route

BIKF NA BGBW

ID Type Via Altitude Latitude Longitude Leg Dist Tot Dist Heading (true) Name
O BIKF APT - 0 ft / 0 m 63.96448˚ -22.60545˚ - 0 nm - -
NA NDB - 0 ft / 0 m 61.17074˚ -45.41295˚ 649 nm 649 nm 265° / 245° NARSARSUAQ NDB
O BGBW APT - 0 ft / 0 m 61.15435˚ -45.43692˚ 1 nm 650 nm 215° / 215° -

Altitude Profile

Advertisement - Login to hide

Weather


0- 5 10 15 20 25 30 35+ Temperature / ° C

Clouds and Precipitation
Forecast for 2017-12-18 06:00 UTC. Updated 24 minutes ago

Ground ~20,000 ft ~40,000 ft Winds

BIKF

Details ICAO BIKF (KEF)
Name Keflavik
Region Iceland
Timezone Atlantic/Reykjavik (UTC+0.0)
Stats Elevation 170 ft / 52 m (AMSL)
Location 63.981612° -22.614563°
Runways 2
Magnetic Variation 14.065° W

METAR

BIKF 180130Z 13029G41KT 9999 -DZRA FEW007 SCT019 BKN034 04/03 Q0989

Decode

TAF

TAF BIKF 180133Z 1803/1903 15023G35KT 9000 -RADZ BKN010 OVC015 TX08/1812Z TN04/1803Z BECMG 1803/1805 19015KT SCT015 BKN030 TEMPO 1812/1822 4000 RADZ BR OVC012 BECMG 1900/1903 23025G40KT

Decode

Departure Runways

ID Width Length Bearing (true) Bearing (mag) Surface Threshold Offset Overrun Length
02 197 ft / 60 m 9,997 ft / 3,047 m 0.02° 14.08° Asphalt 0 ft / 0 m 492 ft / 150 m
11 197 ft / 60 m 10,022 ft / 3,055 m 89.97° 104.03° Asphalt 0 ft / 0 m 246 ft / 75 m
20 197 ft / 60 m 9,997 ft / 3,047 m 180.02° 194.08° Asphalt 0 ft / 0 m 98 ft / 30 m
29 197 ft / 60 m 10,022 ft / 3,055 m 270.02° 284.08° Asphalt 0 ft / 0 m 197 ft / 60 m

BGBW

Details ICAO BGBW (UAK)
Name Narsarsuaq
Region Greenland
Timezone America/Godthab (UTC-3.0)
Stats Elevation 112 ft / 34 m (AMSL)
Location 61.160516° -45.425976°
Runways 1
Magnetic Variation 22.903° W

METAR

BGBW 180050Z AUTO 16007KT 120V190 9999NDV FEW060/// OVC080/// 03/M06 Q0970

Decode

TAF

Not found

Destination Runways

ID Width Length Bearing (true) Bearing (mag) Surface Threshold Offset Overrun Length
07 148 ft / 45 m 5,921 ft / 1,805 m 40.57° 63.47° Concrete 0 ft / 0 m 0 ft / 0 m
25 148 ft / 45 m 5,921 ft / 1,805 m 220.58° 243.48° Concrete 0 ft / 0 m 279 ft / 85 m

Popular Alternatives